Time;durP1;ratioP1;P1;durP2;ratioP2;P2;SDS_P1;SDS_P2;PMS_P1;PMS_P2;Temp;Humidity;BMP_temperature;BMP_pressure;BME280_temperature;BME280_humidity;BME280_pressure;Samples;Min_cycle;Max_cycle;Signal;HPM_P1;HPM_P2
2021/11/25 00:00:11;;;;;;;;;19.75;16.75;;;;;;;;5057872;28;45459;-77
2021/11/25 00:02:37;;;;;;;;;18.25;18.25;;;;;;;;5058306;28;45973;-79
2021/11/25 00:05:02;;;;;;;;;18.75;17.00;;;;;;;;5058432;28;45879;-78
2021/11/25 00:07:27;;;;;;;;;21.00;18.50;;;;;;;;5058324;28;45296;-77
2021/11/25 00:09:53;;;;;;;;;19.75;18.25;;;;;;;;5058502;28;45381;-77
2021/11/25 00:12:18;;;;;;;;;22.00;20.00;;;;;;;;5057601;28;47073;-77
2021/11/25 00:14:43;;;;;;;;;25.25;21.25;;;;;;;;5057626;28;45404;-77
2021/11/25 00:17:09;;;;;;;;;19.25;18.50;;;;;;;;5061489;28;45529;-77
2021/11/25 00:19:34;;;;;;;;;21.50;21.50;;;;;;;;5058173;27;45654;-78
2021/11/25 00:21:59;;;;;;;;;25.00;22.25;;;;;;;;5057599;28;46082;-78
2021/11/25 00:24:24;;;;;;;;;22.00;20.50;;;;;;;;5058363;28;45570;-77
2021/11/25 00:26:50;;;;;;;;;29.25;22.00;;;;;;;;5057611;28;45490;-78
2021/11/25 00:29:15;;;;;;;;;22.75;19.25;;;;;;;;5058049;28;45423;-78
2021/11/25 00:31:40;;;;;;;;;27.00;22.00;;;;;;;;5057935;28;45367;-78
2021/11/25 00:34:05;;;;;;;;;20.00;19.00;;;;;;;;5058042;28;45396;-77
2021/11/25 00:36:30;;;;;;;;;22.00;21.75;;;;;;;;5058029;28;45414;-76
2021/11/25 00:38:56;;;;;;;;;23.00;18.00;;;;;;;;5057310;28;45298;-77
2021/11/25 00:41:21;;;;;;;;;21.50;21.00;;;;;;;;5057857;28;45973;-77
2021/11/25 00:43:46;;;;;;;;;25.00;19.75;;;;;;;;5057880;28;45380;-76
2021/11/25 00:46:12;;;;;;;;;21.50;20.75;;;;;;;;5059975;28;45272;-76
2021/11/25 00:48:37;;;;;;;;;18.50;18.50;;;;;;;;5057941;28;45437;-78
2021/11/25 00:51:03;;;;;;;;;20.50;20.00;;;;;;;;5056054;28;46141;-78
2021/11/25 00:53:28;;;;;;;;;21.00;18.00;;;;;;;;5057575;28;45285;-78
2021/11/25 00:55:53;;;;;;;;;21.75;19.75;;;;;;;;5057702;28;45716;-77
2021/11/25 00:58:20;;;;;;;;;19.00;17.75;;;;;;;;5057658;28;45415;-77
2021/11/25 01:00:45;;;;;;;;;19.75;19.00;;;;;;;;5057643;27;47255;-78
2021/11/25 01:03:11;;;;;;;;;24.75;21.25;;;;;;;;5056733;28;45371;-78
2021/11/25 01:05:36;;;;;;;;;18.25;17.50;;;;;;;;5057186;28;45488;-77
2021/11/25 01:08:01;;;;;;;;;28.50;22.75;;;;;;;;5057463;28;45516;-77
2021/11/25 01:10:27;;;;;;;;;25.50;21.50;;;;;;;;5057267;28;45637;-76
2021/11/25 01:12:53;;;;;;;;;19.50;18.50;;;;;;;;5057676;27;45513;-78
2021/11/25 01:15:19;;;;;;;;;23.75;20.50;;;;;;;;5057231;28;45347;-78
2021/11/25 01:17:45;;;;;;;;;18.25;17.50;;;;;;;;5056940;28;45586;-75
2021/11/25 01:20:17;;;;;;;;;20.50;17.75;;;;;;;;5056476;28;46840;-78
2021/11/25 01:22:42;;;;;;;;;17.75;17.75;;;;;;;;5057223;28;45331;-78
2021/11/25 01:25:08;;;;;;;;;27.00;20.25;;;;;;;;5057253;28;45456;-77
2021/11/25 01:27:33;;;;;;;;;18.75;17.00;;;;;;;;5057405;28;45537;-77
2021/11/25 01:29:59;;;;;;;;;21.75;18.25;;;;;;;;5056292;28;45403;-77
2021/11/25 01:32:24;;;;;;;;;19.75;17.25;;;;;;;;5056714;28;45455;-78
2021/11/25 01:34:49;;;;;;;;;19.50;14.50;;;;;;;;5057028;28;45498;-77
2021/11/25 01:37:14;;;;;;;;;19.25;18.25;;;;;;;;5057030;28;45335;-78
2021/11/25 01:39:39;;;;;;;;;18.75;15.25;;;;;;;;5058699;28;45380;-76
2021/11/25 01:42:05;;;;;;;;;17.50;16.50;;;;;;;;5056940;28;45410;-77
2021/11/25 01:44:30;;;;;;;;;20.50;18.25;;;;;;;;5057106;28;45474;-76
2021/11/25 01:46:55;;;;;;;;;15.75;15.75;;;;;;;;5057110;28;45358;-75
2021/11/25 01:49:20;;;;;;;;;21.50;17.50;;;;;;;;5056177;28;45510;-79
2021/11/25 01:51:46;;;;;;;;;16.75;13.75;;;;;;;;5057428;28;45427;-75
2021/11/25 01:54:11;;;;;;;;;15.00;15.00;;;;;;;;5056846;28;45343;-76
2021/11/25 01:56:36;;;;;;;;;20.75;19.00;;;;;;;;5057850;28;45315;-76
2021/11/25 01:59:01;;;;;;;;;18.50;17.00;;;;;;;;5056609;28;45449;-76
2021/11/25 02:01:33;;;;;;;;;17.25;16.75;;;;;;;;5056986;28;45548;-75
2021/11/25 02:03:59;;;;;;;;;18.50;15.75;;;;;;;;5056488;28;45455;-75
2021/11/25 02:06:25;;;;;;;;;19.75;16.25;;;;;;;;5039924;28;45316;-76
2021/11/25 02:08:50;;;;;;;;;17.50;15.25;;;;;;;;5055862;28;46147;-75
2021/11/25 02:11:15;;;;;;;;;17.75;17.00;;;;;;;;5056440;28;45262;-76
2021/11/25 02:13:40;;;;;;;;;16.50;14.50;;;;;;;;5056714;28;45414;-75
2021/11/25 02:16:06;;;;;;;;;15.75;12.25;;;;;;;;5039492;28;45925;-77
2021/11/25 02:18:31;;;;;;;;;23.00;18.75;;;;;;;;5056348;28;46158;-75
2021/11/25 02:20:58;;;;;;;;;19.50;16.00;;;;;;;;5055772;28;45394;-76
2021/11/25 02:23:23;;;;;;;;;20.50;17.25;;;;;;;;5056530;28;45541;-76
2021/11/25 02:25:49;;;;;;;;;16.50;14.50;;;;;;;;5056565;28;45556;-75
2021/11/25 02:28:21;;;;;;;;;20.00;17.25;;;;;;;;5056674;28;45543;-77
2021/11/25 02:30:48;;;;;;;;;16.75;13.75;;;;;;;;5056674;28;45788;-77
2021/11/25 02:33:13;;;;;;;;;21.25;19.25;;;;;;;;5055317;28;45352;-78
2021/11/25 02:35:39;;;;;;;;;17.75;15.00;;;;;;;;5056632;28;45537;-77
2021/11/25 02:38:05;;;;;;;;;22.25;17.75;;;;;;;;5056221;27;45222;-78
2021/11/25 02:40:30;;;;;;;;;18.75;15.00;;;;;;;;5056465;28;45406;-77
2021/11/25 02:42:59;;;;;;;;;16.75;14.25;;;;;;;;5056736;28;45576;-75
2021/11/25 02:45:25;;;;;;;;;12.75;11.00;;;;;;;;5056476;28;45361;-77
2021/11/25 02:47:51;;;;;;;;;17.50;13.00;;;;;;;;5055014;28;45339;-77
2021/11/25 02:50:17;;;;;;;;;18.50;15.00;;;;;;;;5055796;28;45648;-78
2021/11/25 02:52:43;;;;;;;;;19.25;17.25;;;;;;;;5056242;28;45557;-77
2021/11/25 02:55:09;;;;;;;;;17.00;15.25;;;;;;;;5056278;28;45250;-77
2021/11/25 02:57:35;;;;;;;;;13.00;12.25;;;;;;;;5039971;28;46137;-77
2021/11/25 03:00:00;;;;;;;;;18.00;15.50;;;;;;;;5055170;28;45386;-77
2021/11/25 03:02:25;;;;;;;;;14.50;13.00;;;;;;;;5055744;28;45606;-77
2021/11/25 03:04:51;;;;;;;;;16.75;16.25;;;;;;;;5056152;28;45436;-77
2021/11/25 03:07:16;;;;;;;;;19.50;16.50;;;;;;;;5055741;28;46065;-77
2021/11/25 03:09:41;;;;;;;;;17.25;15.25;;;;;;;;5055839;28;45486;-76
2021/11/25 03:12:06;;;;;;;;;17.00;16.00;;;;;;;;5057098;28;45292;-78
2021/11/25 03:14:32;;;;;;;;;16.00;14.75;;;;;;;;5059701;28;45594;-78
2021/11/25 03:16:57;;;;;;;;;13.00;13.00;;;;;;;;5059045;28;47147;-77
2021/11/25 03:19:22;;;;;;;;;20.25;14.50;;;;;;;;5059212;28;45475;-77
2021/11/25 03:21:47;;;;;;;;;22.00;19.50;;;;;;;;5059454;28;45304;-75
2021/11/25 03:24:12;;;;;;;;;18.75;16.25;;;;;;;;5058663;28;45554;-77
2021/11/25 03:26:38;;;;;;;;;14.00;14.00;;;;;;;;5059318;28;45998;-77
2021/11/25 03:29:03;;;;;;;;;14.00;13.25;;;;;;;;5059002;28;45507;-77
2021/11/25 03:31:30;;;;;;;;;20.50;18.75;;;;;;;;5058744;28;45387;-78
2021/11/25 03:33:56;;;;;;;;;17.25;16.00;;;;;;;;5059061;28;45395;-78
2021/11/25 03:36:22;;;;;;;;;21.50;18.75;;;;;;;;5062290;28;46343;-77
2021/11/25 03:38:47;;;;;;;;;21.50;15.50;;;;;;;;5058257;28;45468;-76
2021/11/25 03:41:13;;;;;;;;;22.75;20.75;;;;;;;;5059097;28;45547;-77
2021/11/25 03:43:39;;;;;;;;;22.75;18.00;;;;;;;;5058943;28;45387;-77
2021/11/25 03:46:04;;;;;;;;;29.50;24.25;;;;;;;;5058128;28;46829;-76
2021/11/25 03:48:30;;;;;;;;;39.75;26.25;;;;;;;;5058825;28;45277;-77
2021/11/25 03:50:56;;;;;;;;;29.75;26.00;;;;;;;;5057727;28;45308;-75
2021/11/25 03:53:21;;;;;;;;;29.25;26.25;;;;;;;;5058566;28;45492;-77
2021/11/25 03:55:47;;;;;;;;;28.00;27.50;;;;;;;;5058282;27;45997;-77
2021/11/25 03:58:12;;;;;;;;;31.00;27.00;;;;;;;;5058521;28;45450;-76
2021/11/25 04:00:38;;;;;;;;;35.25;28.75;;;;;;;;5058283;28;45335;-76
2021/11/25 04:03:03;;;;;;;;;30.50;26.75;;;;;;;;5057859;28;45292;-77
2021/11/25 04:05:29;;;;;;;;;36.75;32.25;;;;;;;;5058597;28;45456;-76
2021/11/25 04:07:54;;;;;;;;;34.50;30.75;;;;;;;;5044626;28;45399;-76
2021/11/25 04:10:19;;;;;;;;;32.25;29.75;;;;;;;;5058557;28;45426;-76
2021/11/25 04:12:44;;;;;;;;;33.25;31.50;;;;;;;;5058497;28;45537;-76
2021/11/25 04:15:10;;;;;;;;;34.50;32.25;;;;;;;;5057133;28;46330;-75
2021/11/25 04:17:35;;;;;;;;;40.25;36.00;;;;;;;;5057956;28;45477;-75
2021/11/25 04:20:01;;;;;;;;;45.50;36.00;;;;;;;;5058068;28;45330;-77
2021/11/25 04:22:26;;;;;;;;;42.75;35.25;;;;;;;;5057646;28;49213;-77
2021/11/25 04:24:52;;;;;;;;;40.00;35.25;;;;;;;;5058057;28;46006;-77
2021/11/25 04:27:18;;;;;;;;;47.50;37.25;;;;;;;;5057444;28;45560;-77
2021/11/25 04:29:49;;;;;;;;;44.00;37.50;;;;;;;;5057016;28;45534;-77
2021/11/25 04:37:42;;;;;;;;;42.50;37.25;;;;;;;;5057791;28;45443;-77
2021/11/25 04:40:08;;;;;;;;;51.00;37.25;;;;;;;;5058067;28;45392;-76
2021/11/25 04:42:33;;;;;;;;;47.25;37.50;;;;;;;;5059889;28;47049;-77
2021/11/25 04:44:58;;;;;;;;;48.00;36.00;;;;;;;;5042853;28;46010;-77
2021/11/25 04:47:23;;;;;;;;;42.75;36.00;;;;;;;;5058315;28;45356;-77
2021/11/25 04:49:49;;;;;;;;;51.50;38.00;;;;;;;;5044700;28;45450;-78
2021/11/25 04:52:14;;;;;;;;;49.25;38.25;;;;;;;;5057709;28;45454;-75
2021/11/25 04:54:39;;;;;;;;;45.75;38.75;;;;;;;;5057659;28;45744;-76
2021/11/25 04:57:05;;;;;;;;;54.25;39.00;;;;;;;;5056199;28;45386;-76
2021/11/25 04:59:31;;;;;;;;;49.00;37.50;;;;;;;;5057550;28;45376;-77
2021/11/25 05:01:56;;;;;;;;;54.75;41.75;;;;;;;;5057332;28;45344;-75
2021/11/25 05:04:21;;;;;;;;;51.00;40.50;;;;;;;;5057236;28;46168;-77
2021/11/25 05:06:46;;;;;;;;;45.50;37.50;;;;;;;;5057326;27;45399;-77
2021/11/25 05:09:13;;;;;;;;;47.75;39.00;;;;;;;;5056458;28;45399;-77
2021/11/25 05:11:38;;;;;;;;;45.00;39.25;;;;;;;;5056673;28;45473;-76
2021/11/25 05:14:03;;;;;;;;;52.50;39.75;;;;;;;;5056652;28;45481;-75
2021/11/25 05:16:29;;;;;;;;;52.25;40.50;;;;;;;;5056775;28;45573;-75
2021/11/25 05:18:54;;;;;;;;;61.00;46.50;;;;;;;;5056707;27;45142;-75
2021/11/25 05:21:19;;;;;;;;;55.75;42.50;;;;;;;;5056466;28;45282;-76
2021/11/25 05:23:44;;;;;;;;;58.25;45.50;;;;;;;;5055498;28;45455;-77
2021/11/25 05:26:10;;;;;;;;;58.00;47.00;;;;;;;;5056294;28;45403;-77
2021/11/25 05:28:35;;;;;;;;;57.50;43.25;;;;;;;;5042449;28;45351;-77
2021/11/25 05:31:00;;;;;;;;;52.75;42.75;;;;;;;;5056250;27;45414;-77
2021/11/25 05:33:25;;;;;;;;;45.25;38.25;;;;;;;;5055264;28;47023;-77
2021/11/25 05:35:51;;;;;;;;;58.50;44.25;;;;;;;;5054865;28;45558;-76
2021/11/25 05:38:16;;;;;;;;;57.25;44.75;;;;;;;;5056065;28;45375;-76
2021/11/25 05:40:41;;;;;;;;;59.50;45.00;;;;;;;;5055995;28;45421;-77
2021/11/25 05:43:06;;;;;;;;;60.50;48.00;;;;;;;;5055856;27;46270;-77
2021/11/25 05:45:32;;;;;;;;;54.00;43.00;;;;;;;;5055780;28;45423;-77
2021/11/25 05:47:57;;;;;;;;;62.00;47.00;;;;;;;;5055245;28;45575;-77
2021/11/25 05:50:24;;;;;;;;;62.25;47.75;;;;;;;;5055447;28;45478;-77
2021/11/25 05:52:51;;;;;;;;;48.75;42.00;;;;;;;;5055883;28;45394;-77
2021/11/25 05:55:16;;;;;;;;;60.25;47.00;;;;;;;;5055140;28;45318;-76
2021/11/25 05:57:42;;;;;;;;;58.75;45.25;;;;;;;;5055655;28;45365;-77
2021/11/25 06:00:10;;;;;;;;;56.50;43.50;;;;;;;;5055147;28;45411;-76
2021/11/25 06:02:36;;;;;;;;;60.75;48.75;;;;;;;;5055263;28;47198;-78
2021/11/25 06:05:01;;;;;;;;;60.00;45.25;;;;;;;;5055681;28;45334;-77
2021/11/25 06:07:26;;;;;;;;;57.00;44.00;;;;;;;;5055387;28;45276;-77
2021/11/25 06:09:51;;;;;;;;;64.75;48.50;;;;;;;;5054737;28;45545;-77
2021/11/25 06:12:17;;;;;;;;;54.75;43.50;;;;;;;;5054942;28;46072;-77
2021/11/25 06:14:42;;;;;;;;;56.75;44.75;;;;;;;;5055104;28;45436;-79
2021/11/25 06:17:07;;;;;;;;;59.25;46.25;;;;;;;;5055679;28;45432;-76
2021/11/25 06:19:33;;;;;;;;;60.75;48.25;;;;;;;;5055824;28;45467;-77
2021/11/25 06:21:58;;;;;;;;;59.75;45.50;;;;;;;;5055149;28;46662;-77
2021/11/25 06:24:23;;;;;;;;;59.50;45.00;;;;;;;;5054890;28;45514;-77
2021/11/25 06:26:50;;;;;;;;;61.25;47.25;;;;;;;;5040638;28;45497;-79
2021/11/25 06:29:18;;;;;;;;;63.25;45.00;;;;;;;;5055457;28;45388;-77
2021/11/25 06:31:43;;;;;;;;;55.75;43.75;;;;;;;;5054548;27;46704;-78
2021/11/25 06:34:10;;;;;;;;;60.75;46.00;;;;;;;;5054796;28;45365;-78
2021/11/25 06:36:35;;;;;;;;;56.75;45.75;;;;;;;;5038951;28;45346;-79
2021/11/25 06:39:01;;;;;;;;;57.25;43.50;;;;;;;;5053651;28;45584;-77
2021/11/25 06:41:26;;;;;;;;;55.25;43.00;;;;;;;;5054078;28;47199;-78
2021/11/25 06:43:51;;;;;;;;;56.50;45.25;;;;;;;;5053745;28;45395;-78
2021/11/25 06:46:16;;;;;;;;;57.50;43.25;;;;;;;;5054268;28;45498;-78
2021/11/25 06:48:42;;;;;;;;;59.00;44.75;;;;;;;;5054261;28;47767;-77
2021/11/25 06:51:07;;;;;;;;;60.25;47.25;;;;;;;;5052988;28;46299;-78
2021/11/25 06:53:32;;;;;;;;;67.25;52.25;;;;;;;;5040559;28;45518;-76
2021/11/25 06:55:57;;;;;;;;;62.75;49.25;;;;;;;;5054527;28;45434;-78
2021/11/25 06:58:22;;;;;;;;;68.00;50.25;;;;;;;;5054451;28;45519;-77
2021/11/25 07:00:48;;;;;;;;;57.25;47.25;;;;;;;;5054166;28;46456;-78
2021/11/25 07:03:13;;;;;;;;;58.25;46.00;;;;;;;;5052764;28;45433;-78
2021/11/25 07:05:39;;;;;;;;;61.00;47.75;;;;;;;;5054621;28;45344;-78
2021/11/25 07:08:04;;;;;;;;;61.25;46.25;;;;;;;;5054329;28;45485;-77
2021/11/25 07:10:30;;;;;;;;;63.50;47.25;;;;;;;;5040135;28;48302;-78
2021/11/25 07:12:55;;;;;;;;;68.50;50.00;;;;;;;;5054568;28;45691;-77
2021/11/25 07:15:21;;;;;;;;;63.75;49.00;;;;;;;;5053895;28;45296;-78
2021/11/25 07:17:47;;;;;;;;;61.00;47.50;;;;;;;;5053294;28;45398;-77
2021/11/25 07:20:13;;;;;;;;;68.75;53.75;;;;;;;;5054011;28;47088;-77
2021/11/25 07:22:38;;;;;;;;;64.25;47.25;;;;;;;;5054277;28;45583;-79
2021/11/25 07:25:04;;;;;;;;;64.50;49.00;;;;;;;;5054668;28;45468;-77
2021/11/25 07:27:30;;;;;;;;;60.25;49.00;;;;;;;;5054262;28;47767;-77
2021/11/25 07:29:55;;;;;;;;;63.75;48.50;;;;;;;;5052803;28;46241;-78
2021/11/25 07:32:20;;;;;;;;;65.25;49.00;;;;;;;;5055833;28;45511;-79
2021/11/25 07:34:46;;;;;;;;;61.50;49.50;;;;;;;;5059668;28;45524;-78
2021/11/25 07:37:11;;;;;;;;;61.75;48.25;;;;;;;;5055356;28;45562;-79
2021/11/25 07:39:36;;;;;;;;;63.75;46.25;;;;;;;;5053909;28;45450;-77
2021/11/25 07:42:02;;;;;;;;;64.75;51.75;;;;;;;;5052989;28;45334;-77
2021/11/25 07:44:27;;;;;;;;;58.50;47.75;;;;;;;;5053659;28;45515;-79
2021/11/25 07:46:52;;;;;;;;;64.50;46.75;;;;;;;;5054023;28;45479;-79
2021/11/25 07:49:20;;;;;;;;;61.00;48.75;;;;;;;;5051086;28;45594;-79
2021/11/25 07:51:45;;;;;;;;;67.50;50.50;;;;;;;;5050114;28;45495;-78
2021/11/25 07:54:10;;;;;;;;;60.25;46.50;;;;;;;;5050247;28;45414;-79
2021/11/25 07:56:35;;;;;;;;;66.75;52.25;;;;;;;;5052874;28;45523;-78
2021/11/25 07:59:01;;;;;;;;;59.00;47.25;;;;;;;;5055963;28;45560;-78
2021/11/25 08:01:26;;;;;;;;;62.25;50.00;;;;;;;;5055245;28;45229;-78
2021/11/25 08:03:51;;;;;;;;;69.00;56.33;;;;;;;;5044921;28;45367;-78
2021/11/25 08:06:16;;;;;;;;;65.50;50.75;;;;;;;;5055001;28;45291;-78
2021/11/25 08:08:42;;;;;;;;;66.50;51.75;;;;;;;;5057306;28;46552;-78
2021/11/25 08:11:08;;;;;;;;;65.75;47.50;;;;;;;;5056566;28;45430;-78
2021/11/25 08:13:33;;;;;;;;;66.00;49.50;;;;;;;;5056781;28;45695;-78
2021/11/25 08:15:58;;;;;;;;;58.00;46.50;;;;;;;;5054133;28;45540;-78
2021/11/25 08:18:24;;;;;;;;;60.00;47.25;;;;;;;;5055943;28;45533;-77
2021/11/25 08:20:49;;;;;;;;;67.00;51.00;;;;;;;;5057144;28;45306;-77
2021/11/25 08:23:15;;;;;;;;;56.75;45.00;;;;;;;;5056352;28;45352;-77
2021/11/25 08:25:40;;;;;;;;;63.25;49.50;;;;;;;;5059762;28;45377;-77
2021/11/25 08:28:05;;;;;;;;;67.75;51.50;;;;;;;;5060683;28;45452;-78
2021/11/25 08:30:31;;;;;;;;;59.50;47.00;;;;;;;;5056675;28;45446;-78
2021/11/25 08:32:56;;;;;;;;;63.00;49.75;;;;;;;;5055419;28;45387;-78
2021/11/25 08:35:22;;;;;;;;;58.75;48.00;;;;;;;;5058405;28;45303;-77
2021/11/25 08:37:47;;;;;;;;;58.75;48.25;;;;;;;;5056027;28;45954;-78
2021/11/25 08:40:14;;;;;;;;;60.50;46.00;;;;;;;;5056203;28;45530;-79
2021/11/25 08:42:39;;;;;;;;;57.00;44.50;;;;;;;;5057064;28;45366;-78
2021/11/25 08:45:05;;;;;;;;;63.00;46.75;;;;;;;;5055941;28;45424;-78
2021/11/25 08:47:30;;;;;;;;;56.75;45.00;;;;;;;;5056484;28;47035;-78
2021/11/25 08:49:56;;;;;;;;;65.25;50.25;;;;;;;;5057145;28;45420;-78
2021/11/25 08:52:21;;;;;;;;;63.75;49.00;;;;;;;;5056209;28;45382;-76
2021/11/25 08:54:46;;;;;;;;;62.75;47.75;;;;;;;;5057954;28;45250;-77
2021/11/25 08:57:11;;;;;;;;;61.00;48.75;;;;;;;;5055053;28;46332;-76
2021/11/25 08:59:36;;;;;;;;;58.50;47.25;;;;;;;;5056077;28;45280;-77
2021/11/25 09:02:02;;;;;;;;;67.50;51.75;;;;;;;;5056477;28;45362;-75
2021/11/25 09:04:27;;;;;;;;;58.50;47.25;;;;;;;;5055931;28;45481;-76
2021/11/25 09:06:53;;;;;;;;;65.00;49.25;;;;;;;;5037748;28;47341;-75
2021/11/25 09:09:18;;;;;;;;;58.50;47.00;;;;;;;;5055544;28;47912;-78
2021/11/25 09:11:43;;;;;;;;;59.25;48.75;;;;;;;;5055820;28;45244;-77
2021/11/25 09:14:09;;;;;;;;;63.25;49.00;;;;;;;;5061172;28;45554;-86
2021/11/25 09:16:34;;;;;;;;;62.00;50.00;;;;;;;;5067791;28;46335;-87
2021/11/25 09:19:00;;;;;;;;;64.00;45.00;;;;;;;;5059888;28;45221;-86
2021/11/25 09:21:27;;;;;;;;;65.75;49.50;;;;;;;;5057647;28;45518;-87
2021/11/25 09:23:52;;;;;;;;;63.00;49.50;;;;;;;;5058227;28;45320;-86
2021/11/25 09:26:19;;;;;;;;;65.25;48.50;;;;;;;;5056151;28;45466;-77
2021/11/25 09:28:45;;;;;;;;;63.00;50.50;;;;;;;;5055820;28;45407;-78
2021/11/25 09:31:14;;;;;;;;;59.00;46.00;;;;;;;;5056100;28;45407;-76
2021/11/25 09:33:40;;;;;;;;;61.25;48.25;;;;;;;;5039925;28;45293;-76
2021/11/25 09:36:05;;;;;;;;;65.50;49.00;;;;;;;;5054922;28;47225;-77
2021/11/25 09:38:31;;;;;;;;;62.25;51.50;;;;;;;;5055504;28;45422;-76
2021/11/25 09:40:56;;;;;;;;;56.00;43.25;;;;;;;;5055374;28;45465;-76
2021/11/25 09:43:24;;;;;;;;;67.00;51.25;;;;;;;;5055155;28;45324;-75
2021/11/25 09:45:50;;;;;;;;;61.25;47.25;;;;;;;;5055185;28;46661;-75
2021/11/25 09:48:16;;;;;;;;;60.25;48.50;;;;;;;;5054214;28;45382;-75
2021/11/25 09:50:44;;;;;;;;;62.75;48.75;;;;;;;;5054948;28;45493;-75
2021/11/25 09:53:10;;;;;;;;;65.25;50.00;;;;;;;;5054984;28;45589;-76
2021/11/25 09:55:36;;;;;;;;;63.00;48.25;;;;;;;;5055023;27;45700;-75
2021/11/25 09:58:02;;;;;;;;;63.75;48.75;;;;;;;;5055116;28;45389;-74
2021/11/25 10:00:28;;;;;;;;;66.00;50.00;;;;;;;;5055394;28;45360;-74
2021/11/25 10:02:54;;;;;;;;;60.25;47.25;;;;;;;;5054282;28;45469;-75
2021/11/25 10:05:20;;;;;;;;;63.00;49.50;;;;;;;;5055485;28;45581;-75
2021/11/25 10:07:45;;;;;;;;;64.75;52.00;;;;;;;;5055474;28;45432;-75
2021/11/25 10:10:29;;;;;;;;;66.25;50.50;;;;;;;;5055604;28;45391;-74
2021/11/25 10:12:58;;;;;;;;;66.75;50.25;;;;;;;;5055234;27;45403;-76
2021/11/25 10:15:23;;;;;;;;;63.75;48.50;;;;;;;;5054875;28;47280;-77
2021/11/25 10:17:49;;;;;;;;;68.00;54.00;;;;;;;;5053772;28;45425;-76
2021/11/25 10:20:18;;;;;;;;;66.75;54.00;;;;;;;;5054258;27;45406;-77
2021/11/25 10:23:12;;;;;;;;;69.00;53.25;;;;;;;;5054401;28;45339;-74
2021/11/25 10:25:41;;;;;;;;;67.00;50.50;;;;;;;;5046947;28;46538;-76
2021/11/25 10:28:07;;;;;;;;;67.75;53.00;;;;;;;;5054586;28;45436;-76
2021/11/25 10:30:36;;;;;;;;;68.25;53.75;;;;;;;;5054046;28;45542;-76
2021/11/25 10:33:01;;;;;;;;;61.75;50.25;;;;;;;;5053285;28;45621;-75
2021/11/25 10:35:32;;;;;;;;;70.75;54.00;;;;;;;;5054585;28;47190;-75
2021/11/25 10:40:33;;;;;;;;;68.75;54.50;;;;;;;;5054357;28;45423;-76
2021/11/25 10:42:58;;;;;;;;;65.75;52.75;;;;;;;;5054391;27;45403;-76
2021/11/25 10:45:24;;;;;;;;;75.75;56.50;;;;;;;;5053646;28;46057;-76
2021/11/25 10:47:56;;;;;;;;;64.50;49.00;;;;;;;;5052184;28;45319;-76
2021/11/25 10:50:22;;;;;;;;;65.75;49.75;;;;;;;;5054175;28;45344;-75
2021/11/25 10:52:49;;;;;;;;;57.00;47.00;;;;;;;;5054620;28;45499;-76
2021/11/25 10:55:14;;;;;;;;;61.75;47.75;;;;;;;;5054252;28;46497;-76
2021/11/25 10:57:44;;;;;;;;;66.25;49.75;;;;;;;;5054564;28;45511;-76
2021/11/25 11:00:16;;;;;;;;;66.00;50.00;;;;;;;;5053073;28;45299;-76
2021/11/25 11:02:41;;;;;;;;;64.25;51.25;;;;;;;;5054526;28;45517;-77
2021/11/25 11:05:14;;;;;;;;;62.50;49.75;;;;;;;;5053485;28;45909;-77
2021/11/25 11:07:40;;;;;;;;;67.00;50.75;;;;;;;;5052899;28;45580;-76
2021/11/25 11:10:18;;;;;;;;;63.00;49.00;;;;;;;;5030470;28;46370;-77
2021/11/25 11:12:56;;;;;;;;;62.25;50.25;;;;;;;;5044308;27;45464;-77
2021/11/25 11:18:00;;;;;;;;;67.75;50.75;;;;;;;;5052796;28;45325;-75
2021/11/25 11:20:27;;;;;;;;;67.75;49.25;;;;;;;;5038999;28;45228;-77
2021/11/25 11:22:56;;;;;;;;;59.75;48.75;;;;;;;;5053260;28;45557;-77
2021/11/25 11:25:23;;;;;;;;;60.75;48.75;;;;;;;;5053245;28;46836;-78
2021/11/25 11:27:49;;;;;;;;;58.00;47.00;;;;;;;;5052902;28;45457;-76
2021/11/25 11:30:15;;;;;;;;;68.00;52.50;;;;;;;;5052779;28;46033;-75
2021/11/25 11:32:40;;;;;;;;;62.00;49.25;;;;;;;;5054570;28;45460;-77
2021/11/25 11:35:06;;;;;;;;;60.00;47.00;;;;;;;;5059070;28;47364;-76
2021/11/25 11:37:31;;;;;;;;;62.00;49.25;;;;;;;;5056151;28;45434;-76
2021/11/25 11:39:57;;;;;;;;;66.50;49.75;;;;;;;;5057155;28;45292;-75
2021/11/25 11:42:24;;;;;;;;;63.25;48.50;;;;;;;;5057440;28;45431;-75
2021/11/25 11:44:50;;;;;;;;;66.25;52.75;;;;;;;;5053394;28;46227;-76
2021/11/25 11:47:16;;;;;;;;;64.00;48.25;;;;;;;;5056327;28;45410;-76
2021/11/25 11:49:47;;;;;;;;;62.00;49.00;;;;;;;;5044213;28;45228;-76
2021/11/25 11:52:14;;;;;;;;;54.50;41.75;;;;;;;;5056222;28;45499;-75
2021/11/25 11:54:41;;;;;;;;;67.25;52.00;;;;;;;;5055796;28;46527;-75
2021/11/25 11:57:26;;;;;;;;;73.50;54.50;;;;;;;;5055565;28;45364;-75
2021/11/25 11:59:51;;;;;;;;;67.00;48.75;;;;;;;;5053673;28;45452;-76
2021/11/25 12:02:36;;;;;;;;;52.75;44.50;;;;;;;;5057423;28;45430;-75
2021/11/25 12:05:01;;;;;;;;;60.50;50.25;;;;;;;;5056252;28;46859;-76
2021/11/25 12:07:26;;;;;;;;;67.50;51.00;;;;;;;;5056434;28;45422;-76
2021/11/25 12:09:53;;;;;;;;;59.50;43.75;;;;;;;;5057190;28;45387;-76
2021/11/25 12:12:18;;;;;;;;;63.00;49.00;;;;;;;;5055677;28;45520;-76
2021/11/25 12:15:03;;;;;;;;;59.25;45.75;;;;;;;;5042581;28;47555;-76
2021/11/25 12:17:34;;;;;;;;;62.75;50.00;;;;;;;;5057167;27;45474;-74
2021/11/25 12:20:25;;;;;;;;;58.25;47.75;;;;;;;;5055954;27;45556;-76
2021/11/25 12:22:51;;;;;;;;;59.25;47.00;;;;;;;;5044189;28;45562;-76
2021/11/25 12:25:35;;;;;;;;;59.00;45.75;;;;;;;;5050786;27;46020;-77
2021/11/25 12:28:21;;;;;;;;;60.50;48.75;;;;;;;;5049610;28;45489;-77
2021/11/25 12:30:53;;;;;;;;;62.75;49.00;;;;;;;;5048107;28;45617;-76
2021/11/25 12:33:36;;;;;;;;;65.25;49.50;;;;;;;;5053413;28;45330;-78
2021/11/25 12:36:01;;;;;;;;;66.75;50.50;;;;;;;;5051584;28;45407;-77
2021/11/25 12:38:31;;;;;;;;;60.25;47.00;;;;;;;;5055427;28;45415;-77
2021/11/25 12:40:58;;;;;;;;;61.75;48.25;;;;;;;;5054619;28;45456;-76
2021/11/25 12:43:25;;;;;;;;;60.00;48.25;;;;;;;;5054208;28;45655;-76
2021/11/25 12:45:52;;;;;;;;;68.00;51.00;;;;;;;;5055195;28;46910;-77
2021/11/25 12:48:23;;;;;;;;;58.25;47.50;;;;;;;;5054899;28;45359;-77
2021/11/25 12:50:53;;;;;;;;;63.50;48.50;;;;;;;;5052506;28;45449;-75
2021/11/25 12:53:20;;;;;;;;;61.50;48.75;;;;;;;;5055025;28;45466;-77
2021/11/25 12:55:51;;;;;;;;;65.50;50.75;;;;;;;;5054491;28;46286;-81
2021/11/25 12:58:16;;;;;;;;;62.25;50.50;;;;;;;;5055539;28;45445;-81
2021/11/25 13:00:43;;;;;;;;;64.00;52.00;;;;;;;;5037728;27;45376;-78
2021/11/25 13:03:18;;;;;;;;;58.75;48.00;;;;;;;;5040092;28;45448;-78
2021/11/25 13:05:44;;;;;;;;;61.50;47.75;;;;;;;;5055773;28;45343;-77
2021/11/25 13:08:12;;;;;;;;;63.00;48.75;;;;;;;;5055005;28;45356;-79
2021/11/25 13:10:41;;;;;;;;;65.00;49.25;;;;;;;;5051124;28;46264;-79
2021/11/25 13:13:09;;;;;;;;;62.75;50.00;;;;;;;;5055977;28;45456;-78
2021/11/25 13:15:35;;;;;;;;;59.50;48.25;;;;;;;;5053925;28;45572;-77
2021/11/25 13:18:00;;;;;;;;;63.00;48.25;;;;;;;;5054791;28;45321;-76
2021/11/25 13:20:40;;;;;;;;;67.00;49.00;;;;;;;;5054410;28;46486;-77
2021/11/25 13:23:06;;;;;;;;;63.25;49.50;;;;;;;;5054885;28;45493;-79
2021/11/25 13:25:31;;;;;;;;;58.00;46.00;;;;;;;;5055109;28;46154;-76
2021/11/25 13:27:56;;;;;;;;;62.50;48.75;;;;;;;;5053828;28;45398;-76
2021/11/25 13:30:21;;;;;;;;;55.50;45.25;;;;;;;;5055125;28;45350;-78
2021/11/25 13:32:50;;;;;;;;;66.75;51.00;;;;;;;;5054641;28;45522;-78
2021/11/25 13:35:16;;;;;;;;;64.25;47.50;;;;;;;;5055444;28;47185;-76
2021/11/25 13:37:43;;;;;;;;;64.75;50.50;;;;;;;;5055318;28;45571;-78
2021/11/25 13:40:10;;;;;;;;;65.75;50.25;;;;;;;;5053970;28;45591;-77
2021/11/25 13:42:37;;;;;;;;;56.00;47.25;;;;;;;;5054381;28;45389;-77
2021/11/25 13:45:04;;;;;;;;;61.25;48.00;;;;;;;;5053293;28;46469;-78
2021/11/25 13:47:30;;;;;;;;;61.25;48.25;;;;;;;;5054596;28;45417;-78
2021/11/25 13:49:56;;;;;;;;;58.00;46.75;;;;;;;;5054355;28;45407;-78
2021/11/25 13:52:26;;;;;;;;;57.00;45.75;;;;;;;;5041268;28;45512;-78
2021/11/25 13:54:52;;;;;;;;;64.00;51.25;;;;;;;;5055020;28;45311;-78
2021/11/25 13:57:17;;;;;;;;;61.75;47.25;;;;;;;;5053114;28;45477;-76
2021/11/25 13:59:45;;;;;;;;;67.25;49.25;;;;;;;;5047140;28;45826;-77
2021/11/25 14:02:10;;;;;;;;;59.25;45.50;;;;;;;;5053943;28;45453;-78
2021/11/25 14:04:36;;;;;;;;;62.00;49.00;;;;;;;;5055112;28;45302;-78
2021/11/25 14:07:06;;;;;;;;;63.00;47.00;;;;;;;;5054726;28;45370;-75
2021/11/25 14:09:31;;;;;;;;;60.25;48.00;;;;;;;;5054454;28;45373;-76
2021/11/25 14:11:58;;;;;;;;;57.75;47.75;;;;;;;;5052388;28;45386;-76
2021/11/25 14:14:44;;;;;;;;;57.50;47.25;;;;;;;;5053720;28;46270;-78
2021/11/25 14:17:10;;;;;;;;;54.75;42.00;;;;;;;;5053249;28;45383;-78
2021/11/25 14:19:36;;;;;;;;;51.25;40.75;;;;;;;;5055218;28;45479;-77
2021/11/25 14:22:01;;;;;;;;;59.00;45.75;;;;;;;;5056881;28;45181;-79